Time;durP1;ratioP1;P1;durP2;ratioP2;P2;SDS_P1;SDS_P2;PMS_P1;PMS_P2;Temp;Humidity;BMP_temperature;BMP_pressure;BME280_temperature;BME280_humidity;BME280_pressure;Samples;Min_cycle;Max_cycle;Signal;HPM_P1;HPM_P2
2022/12/25 00:02:02;;;;;;;1.08;0.35;;;6.70;99.90;;;;;;5056430;28;20048;-82
2022/12/25 00:04:27;;;;;;;0.25;0.20;;;6.80;99.90;;;;;;5039961;28;20121;-81
2022/12/25 00:06:54;;;;;;;0.00;0.00;;;6.80;99.90;;;;;;5056383;28;20040;-82
2022/12/25 00:09:20;;;;;;;0.05;0.05;;;6.80;99.90;;;;;;5056333;28;20045;-82
2022/12/25 00:11:45;;;;;;;2.35;0.25;;;6.90;99.90;;;;;;5072882;28;20090;-82
2022/12/25 00:14:11;;;;;;;0.22;0.22;;;6.90;99.90;;;;;;5042973;28;20044;-82
2022/12/25 00:16:37;;;;;;;0.73;0.25;;;6.90;99.90;;;;;;5077145;28;20422;-82
2022/12/25 00:19:02;;;;;;;0.08;0.08;;;7.00;99.90;;;;;;5092871;28;20080;-82
2022/12/25 00:21:28;;;;;;;0.13;0.13;;;7.00;99.90;;;;;;5075906;28;20044;-82
2022/12/25 00:23:56;;;;;;;2.72;0.22;;;7.10;99.90;;;;;;5093049;28;20039;-82
2022/12/25 00:26:22;;;;;;;0.10;0.10;;;7.00;99.90;;;;;;5093168;28;20131;-82
2022/12/25 00:28:51;;;;;;;0.30;0.30;;;7.00;99.90;;;;;;5093227;28;20077;-82
2022/12/25 00:31:17;;;;;;;2.53;0.35;;;7.00;99.90;;;;;;5059622;28;20048;-82
2022/12/25 00:33:45;;;;;;;15.27;0.95;;;7.00;99.90;;;;;;5076833;28;20100;-82
2022/12/25 00:36:12;;;;;;;0.00;0.00;;;7.00;99.90;;;;;;5092922;28;20040;-82
2022/12/25 00:38:38;;;;;;;0.50;0.32;;;6.90;99.90;;;;;;5092438;28;20052;-82
2022/12/25 00:41:13;;;;;;;0.65;0.50;;;6.90;99.90;;;;;;5092872;28;20052;-81
2022/12/25 00:43:42;;;;;;;1.80;1.38;;;6.90;99.90;;;;;;5093481;28;20048;-83
2022/12/25 00:46:10;;;;;;;0.32;0.30;;;6.90;99.90;;;;;;5092837;28;20040;-82
2022/12/25 00:48:36;;;;;;;0.68;0.52;;;6.80;99.90;;;;;;5075969;28;20047;-84
2022/12/25 00:51:05;;;;;;;0.13;0.13;;;6.80;99.90;;;;;;5075838;28;20507;-81
2022/12/25 00:53:31;;;;;;;0.30;0.30;;;6.80;99.90;;;;;;5092593;28;20074;-82
2022/12/25 00:56:00;;;;;;;0.47;0.43;;;6.80;99.90;;;;;;5076050;28;20488;-83
2022/12/25 00:58:28;;;;;;;0.30;0.30;;;6.80;99.90;;;;;;5092453;28;20074;-81
2022/12/25 01:00:55;;;;;;;0.15;0.15;;;6.80;99.90;;;;;;5092790;28;20365;-83
2022/12/25 01:03:20;;;;;;;0.10;0.10;;;6.70;99.90;;;;;;5063190;28;20504;-83
2022/12/25 01:05:57;;;;;;;0.20;0.00;;;6.80;99.90;;;;;;5079736;28;20047;-81
2022/12/25 01:08:24;;;;;;;4.10;0.30;;;6.80;99.90;;;;;;5096390;28;20396;-81
2022/12/25 01:10:58;;;;;;;0.20;0.20;;;6.80;99.90;;;;;;5079891;28;20052;-84
2022/12/25 01:13:24;;;;;;;0.00;0.00;;;6.80;99.90;;;;;;5097095;28;20181;-81
2022/12/25 01:15:51;;;;;;;0.00;0.00;;;6.80;99.90;;;;;;5063494;28;20498;-81
2022/12/25 01:18:18;;;;;;;0.10;0.10;;;6.80;99.90;;;;;;5095988;28;20063;-81
2022/12/25 01:20:44;;;;;;;0.00;0.00;;;6.80;99.90;;;;;;5079597;28;20055;-81
2022/12/25 01:23:10;;;;;;;1.10;0.82;;;6.80;99.90;;;;;;5063178;28;20040;-82
2022/12/25 01:25:35;;;;;;;0.20;0.20;;;6.80;99.90;;;;;;5062823;28;20044;-82
2022/12/25 01:28:01;;;;;;;0.65;0.65;;;6.90;99.90;;;;;;5096374;28;20036;-82
2022/12/25 01:30:27;;;;;;;0.00;0.00;;;6.90;99.90;;;;;;5063138;28;20131;-82
2022/12/25 01:32:52;;;;;;;0.45;0.17;;;7.00;99.90;;;;;;5079273;28;20561;-82
2022/12/25 01:35:18;;;;;;;2.35;0.47;;;7.10;99.90;;;;;;5096189;28;20040;-82
2022/12/25 01:37:44;;;;;;;0.03;0.03;;;7.20;99.90;;;;;;5078743;28;20055;-82
2022/12/25 01:40:10;;;;;;;0.43;0.43;;;7.20;99.90;;;;;;5078357;28;20055;-82
2022/12/25 01:42:36;;;;;;;0.00;0.00;;;7.20;99.90;;;;;;5079083;28;20087;-82
2022/12/25 01:45:33;;;;;;;0.00;0.00;;;7.30;99.90;;;;;;5079724;28;20083;-82
2022/12/25 01:48:07;;;;;;;0.52;0.30;;;7.40;99.90;;;;;;5095950;28;20507;-82
2022/12/25 01:50:34;;;;;;;0.00;0.00;;;7.40;99.90;;;;;;5095908;28;20043;-82
2022/12/25 01:53:01;;;;;;;3.83;0.75;;;7.50;99.90;;;;;;5079009;28;20044;-82
2022/12/25 01:55:27;;;;;;;0.50;0.10;;;7.50;99.90;;;;;;5062273;28;20086;-82
2022/12/25 01:57:54;;;;;;;1.25;0.70;;;7.50;99.90;;;;;;5078975;28;20432;-82
2022/12/25 02:00:19;;;;;;;0.00;0.00;;;7.50;99.90;;;;;;5079324;28;20052;-82
2022/12/25 02:02:46;;;;;;;6.82;0.30;;;7.50;99.90;;;;;;5078820;28;20480;-82
2022/12/25 02:05:26;;;;;;;0.00;0.00;;;7.60;99.90;;;;;;5079117;28;20483;-82
2022/12/25 02:07:52;;;;;;;1.00;0.40;;;7.60;99.90;;;;;;5095479;28;20392;-82
2022/12/25 02:10:18;;;;;;;0.00;0.00;;;7.60;99.90;;;;;;5062020;28;20419;-82
2022/12/25 02:12:45;;;;;;;0.00;0.00;;;7.70;99.90;;;;;;5078072;28;20048;-82
2022/12/25 02:15:17;;;;;;;0.00;0.00;;;7.70;99.90;;;;;;5095413;28;20048;-82
2022/12/25 02:17:49;;;;;;;3.60;0.40;;;7.70;99.90;;;;;;5095087;28;20063;-82
2022/12/25 02:21:04;;;;;;;0.03;0.03;;;7.70;99.90;;;;;;5095744;28;20487;-82
2022/12/25 02:23:50;;;;;;;2.38;0.73;;;7.70;99.90;;;;;;5095264;28;20066;-82
2022/12/25 02:26:34;;;;;;;0.00;0.00;;;7.70;99.90;;;;;;5078412;28;20044;-81
2022/12/25 02:29:19;;;;;;;1.13;1.10;;;7.80;99.90;;;;;;5095388;28;20051;-82
2022/12/25 02:32:16;;;;;;;1.73;0.17;;;7.80;99.90;;;;;;5095101;28;20487;-82
2022/12/25 02:34:45;;;;;;;0.08;0.08;;;7.80;99.90;;;;;;5069713;28;20048;-82
2022/12/25 02:37:36;;;;;;;0.10;0.10;;;7.90;99.90;;;;;;5094735;28;20040;-82
2022/12/25 02:40:08;;;;;;;0.10;0.10;;;7.90;99.90;;;;;;5094823;28;20120;-82
2022/12/25 03:08:24;;;;;;;0.00;0.00;;;8.00;99.90;;;;;;5094006;28;20135;-82
2022/12/25 03:13:47;;;;;;;0.75;0.38;;;8.00;99.90;;;;;;5094399;28;20400;-82
2022/12/25 03:18:58;;;;;;;0.63;0.43;;;8.00;99.90;;;;;;5093868;28;20078;-82
2022/12/25 03:26:55;;;;;;;0.30;0.30;;;8.00;99.90;;;;;;5093783;28;20059;-82
2022/12/25 03:32:38;;;;;;;6.22;1.45;;;8.10;99.90;;;;;;5094157;28;20152;-82
2022/12/25 03:35:27;;;;;;;0.80;0.25;;;8.10;99.90;;;;;;5076989;28;20047;-82
2022/12/25 04:36:41;;;;;;;1.65;0.60;;;8.40;99.90;;;;;;5092201;28;20056;-82
2022/12/25 04:39:08;;;;;;;3.10;0.57;;;8.50;99.90;;;;;;5092879;28;20060;-82
2022/12/25 04:41:34;;;;;;;0.32;0.32;;;8.50;99.90;;;;;;5092797;28;20055;-82
2022/12/25 04:44:00;;;;;;;0.40;0.17;;;8.50;99.90;;;;;;5059326;28;20044;-82
2022/12/25 04:46:25;;;;;;;5.78;0.50;;;8.50;99.90;;;;;;5042678;28;20130;-82
2022/12/25 04:48:51;;;;;;;0.63;0.25;;;8.50;99.90;;;;;;5059031;28;20051;-83
2022/12/25 04:51:20;;;;;;;0.30;0.20;;;8.50;99.90;;;;;;5076020;28;20052;-82
2022/12/25 04:53:47;;;;;;;0.17;0.17;;;8.60;99.90;;;;;;5093683;28;20050;-83
2022/12/25 04:56:14;;;;;;;0.22;0.15;;;8.60;99.90;;;;;;5075919;28;20052;-82
2022/12/25 04:58:40;;;;;;;0.10;0.00;;;8.60;99.90;;;;;;5058706;28;20551;-82
2022/12/25 05:01:07;;;;;;;1.30;0.13;;;8.60;99.90;;;;;;5059210;28;20083;-82
2022/12/25 05:03:33;;;;;;;0.08;0.00;;;8.60;99.90;;;;;;5058911;28;20507;-82
2022/12/25 05:06:01;;;;;;;1.27;0.40;;;8.50;99.90;;;;;;5075822;28;20395;-82
2022/12/25 05:08:29;;;;;;;0.65;0.65;;;8.60;99.90;;;;;;5075134;28;20048;-82
2022/12/25 05:10:54;;;;;;;0.20;0.20;;;8.60;99.90;;;;;;5092374;28;20044;-83
2022/12/25 05:13:20;;;;;;;0.17;0.17;;;8.60;99.90;;;;;;5092309;28;20055;-82
2022/12/25 05:15:46;;;;;;;0.20;0.20;;;8.60;99.90;;;;;;5092283;28;20082;-82
2022/12/25 05:18:12;;;;;;;0.88;0.28;;;8.70;99.90;;;;;;5075184;28;20055;-82
2022/12/25 05:20:38;;;;;;;0.22;0.17;;;8.70;99.90;;;;;;5091717;28;20044;-82
2022/12/25 05:23:03;;;;;;;0.30;0.28;;;8.60;99.90;;;;;;5058419;28;20044;-82
2022/12/25 05:25:29;;;;;;;0.28;0.00;;;8.70;99.90;;;;;;5058804;28;20044;-82
2022/12/25 05:27:55;;;;;;;0.20;0.00;;;8.70;99.90;;;;;;5092071;28;20083;-82
2022/12/25 05:30:21;;;;;;;0.25;0.25;;;8.70;99.90;;;;;;5092198;28;20047;-82
2022/12/25 05:32:47;;;;;;;1.23;0.40;;;8.70;99.90;;;;;;5092282;28;20056;-82
2022/12/25 05:35:13;;;;;;;3.20;0.40;;;8.70;99.90;;;;;;5092248;28;20447;-82
2022/12/25 05:37:38;;;;;;;4.78;0.70;;;8.70;99.90;;;;;;5074826;28;20044;-82
2022/12/25 05:40:05;;;;;;;0.57;0.57;;;8.70;99.90;;;;;;5091146;28;20047;-82
2022/12/25 05:42:31;;;;;;;0.08;0.08;;;8.70;99.90;;;;;;5091935;28;20081;-82
2022/12/25 05:44:56;;;;;;;0.85;0.57;;;8.70;99.90;;;;;;5091771;28;20056;-82
2022/12/25 05:47:22;;;;;;;0.65;0.65;;;8.70;99.90;;;;;;5041302;28;20055;-82
2022/12/25 05:49:48;;;;;;;0.00;0.00;;;8.80;99.90;;;;;;5078166;28;20724;-82
2022/12/25 05:52:13;;;;;;;0.00;0.00;;;8.80;99.90;;;;;;5078539;28;20097;-82
2022/12/25 05:54:39;;;;;;;3.67;0.47;;;8.80;99.90;;;;;;5062102;28;20397;-81
2022/12/25 05:57:05;;;;;;;0.00;0.00;;;8.80;99.90;;;;;;5078745;28;20104;-82
2022/12/25 05:59:32;;;;;;;0.10;0.10;;;8.80;99.90;;;;;;5078643;28;20490;-82
2022/12/25 06:01:58;;;;;;;3.92;1.00;;;8.80;99.90;;;;;;5095745;28;20161;-82
2022/12/25 06:04:25;;;;;;;0.20;0.15;;;8.80;99.90;;;;;;5095765;28;20044;-82
2022/12/25 06:06:51;;;;;;;0.15;0.15;;;8.80;99.90;;;;;;5078175;28;20052;-82
2022/12/25 06:09:17;;;;;;;0.30;0.20;;;8.80;99.90;;;;;;5078613;28;20046;-82
2022/12/25 06:11:43;;;;;;;0.00;0.00;;;8.80;99.90;;;;;;5078677;28;20044;-82
2022/12/25 06:14:13;;;;;;;0.95;0.05;;;8.80;99.90;;;;;;5095307;28;20040;-82
2022/12/25 06:16:38;;;;;;;1.02;0.10;;;8.80;99.90;;;;;;5094903;28;20090;-82
2022/12/25 06:19:05;;;;;;;0.20;0.20;;;8.90;99.90;;;;;;5078239;28;20075;-82
2022/12/25 06:21:31;;;;;;;0.65;0.00;;;8.80;99.90;;;;;;5095139;28;20040;-81
2022/12/25 06:24:00;;;;;;;0.93;0.10;;;8.90;99.90;;;;;;5094813;28;20484;-82
2022/12/25 06:26:26;;;;;;;0.10;0.10;;;8.80;99.90;;;;;;5077974;28;20510;-82
2022/12/25 06:28:52;;;;;;;0.40;0.10;;;8.90;99.90;;;;;;5078143;28;20047;-81
2022/12/25 06:31:21;;;;;;;0.10;0.00;;;8.90;99.90;;;;;;5095341;28;20131;-82
2022/12/25 06:33:47;;;;;;;0.00;0.00;;;8.90;99.90;;;;;;5094965;28;20086;-82
2022/12/25 06:36:18;;;;;;;0.10;0.10;;;8.90;99.90;;;;;;5094865;28;20048;-81
2022/12/25 06:38:44;;;;;;;0.90;0.35;;;8.90;99.90;;;;;;5077172;28;20096;-82
2022/12/25 06:41:12;;;;;;;0.10;0.10;;;8.90;99.90;;;;;;5094735;28;20083;-82
2022/12/25 06:43:38;;;;;;;0.20;0.20;;;8.80;99.90;;;;;;5094859;28;20086;-82
2022/12/25 06:46:06;;;;;;;1.20;0.52;;;8.80;99.90;;;;;;5077876;28;20083;-82
2022/12/25 06:48:36;;;;;;;0.20;0.00;;;8.80;99.90;;;;;;5094634;28;20056;-82
2022/12/25 06:51:03;;;;;;;0.65;0.10;;;8.80;99.90;;;;;;5060432;28;20475;-83
2022/12/25 06:53:29;;;;;;;0.65;0.13;;;8.80;99.90;;;;;;5091490;28;20046;-82
2022/12/25 06:56:05;;;;;;;1.40;1.08;;;8.80;99.90;;;;;;5075829;28;20036;-82
2022/12/25 06:58:32;;;;;;;0.40;0.20;;;8.70;99.90;;;;;;5094084;28;20127;-82
2022/12/25 07:00:57;;;;;;;0.00;0.00;;;8.70;99.90;;;;;;5075388;28;20902;-87
2022/12/25 07:03:27;;;;;;;0.10;0.10;;;8.70;99.90;;;;;;5077715;28;20056;-88
2022/12/25 07:05:53;;;;;;;2.08;0.22;;;8.70;99.90;;;;;;5078417;28;20047;-81
2022/12/25 07:08:18;;;;;;;1.08;0.52;;;8.60;99.90;;;;;;5076923;28;20047;-80
2022/12/25 07:10:44;;;;;;;0.63;0.00;;;8.60;99.90;;;;;;5094290;28;20078;-80
2022/12/25 07:13:10;;;;;;;0.00;0.00;;;8.60;99.90;;;;;;5060734;28;20388;-81
2022/12/25 07:15:35;;;;;;;0.00;0.00;;;8.60;99.90;;;;;;5078128;28;20071;-81
2022/12/25 07:18:01;;;;;;;0.22;0.22;;;8.60;99.90;;;;;;5094705;28;20052;-81
2022/12/25 07:20:28;;;;;;;0.40;0.40;;;8.60;99.90;;;;;;5076947;28;20048;-81
2022/12/25 07:22:54;;;;;;;6.35;0.93;;;8.60;99.90;;;;;;5078086;28;20040;-81
2022/12/25 07:25:20;;;;;;;0.00;0.00;;;8.50;99.90;;;;;;5076790;28;20044;-81
2022/12/25 07:27:46;;;;;;;0.10;0.00;;;8.60;99.90;;;;;;5077336;28;20083;-81
2022/12/25 07:30:12;;;;;;;0.00;0.00;;;8.50;99.90;;;;;;5060564;28;20040;-81
2022/12/25 07:32:37;;;;;;;0.00;0.00;;;8.60;99.90;;;;;;5076717;28;20533;-81
2022/12/25 07:35:03;;;;;;;0.85;0.22;;;8.60;99.90;;;;;;5093876;28;20122;-81
2022/12/25 07:37:29;;;;;;;0.63;0.22;;;8.60;99.90;;;;;;5059035;28;20051;-81
2022/12/25 07:39:55;;;;;;;0.10;0.10;;;8.60;99.90;;;;;;5056657;28;20088;-81
2022/12/25 07:42:20;;;;;;;0.38;0.32;;;8.60;99.90;;;;;;5073496;28;20051;-81
2022/12/25 07:44:46;;;;;;;0.32;0.10;;;8.60;99.90;;;;;;5057021;28;20058;-81
2022/12/25 07:47:13;;;;;;;0.00;0.00;;;8.70;99.90;;;;;;5056402;28;20052;-81
2022/12/25 07:49:39;;;;;;;0.40;0.40;;;8.60;99.90;;;;;;5073512;28;20132;-81
2022/12/25 07:52:04;;;;;;;0.05;0.05;;;8.60;99.90;;;;;;5073000;28;20535;-81
2022/12/25 07:54:30;;;;;;;0.00;0.00;;;8.60;99.90;;;;;;5056514;28;20554;-82
2022/12/25 07:56:56;;;;;;;0.00;0.00;;;8.60;99.90;;;;;;5073153;28;20067;-81
2022/12/25 07:59:21;;;;;;;0.47;0.30;;;8.60;99.90;;;;;;5038835;28;20055;-82
2022/12/25 08:01:49;;;;;;;3.53;0.47;;;8.60;99.90;;;;;;5056019;28;20048;-81
2022/12/25 08:04:14;;;;;;;6.50;1.00;;;8.60;99.90;;;;;;5073135;28;20128;-81
2022/12/25 08:06:40;;;;;;;0.00;0.00;;;8.60;99.90;;;;;;5056376;28;20132;-81
2022/12/25 08:09:08;;;;;;;0.10;0.00;;;8.70;99.90;;;;;;5055958;28;20052;-82
2022/12/25 08:11:35;;;;;;;1.00;0.57;;;8.60;99.90;;;;;;5072972;28;20059;-82
2022/12/25 08:14:03;;;;;;;0.00;0.00;;;8.70;99.90;;;;;;5072941;28;20037;-82
2022/12/25 08:16:29;;;;;;;0.08;0.08;;;8.70;99.90;;;;;;5055968;28;20484;-82
2022/12/25 08:18:55;;;;;;;0.15;0.05;;;8.70;99.90;;;;;;5073095;28;20047;-82
2022/12/25 08:21:21;;;;;;;0.10;0.10;;;8.70;99.90;;;;;;5072901;28;20094;-81
2022/12/25 08:23:47;;;;;;;0.00;0.00;;;8.70;99.90;;;;;;5072635;28;20084;-81
2022/12/25 08:26:21;;;;;;;0.00;0.00;;;8.80;99.90;;;;;;5072692;28;20088;-81
2022/12/25 08:28:47;;;;;;;0.00;0.00;;;8.80;99.90;;;;;;5073723;28;20361;-81
2022/12/25 08:31:22;;;;;;;0.05;0.05;;;8.80;99.90;;;;;;5056119;28;20496;-81
2022/12/25 08:33:49;;;;;;;;;;;8.80;99.90;;;;;;5073043;28;20036;-81
2022/12/25 08:36:16;;;;;;;0.00;0.00;;;8.80;99.90;;;;;;5056015;28;19924;-82
2022/12/25 08:38:42;;;;;;;0.20;0.20;;;8.90;99.90;;;;;;5071724;28;20059;-81
2022/12/25 08:41:09;;;;;;;0.25;0.17;;;9.00;99.90;;;;;;5055938;28;20185;-81
2022/12/25 08:43:35;;;;;;;0.32;0.32;;;9.00;99.90;;;;;;5055907;28;20048;-81
2022/12/25 08:46:01;;;;;;;0.45;0.30;;;9.00;99.90;;;;;;5055788;28;20048;-81
2022/12/25 08:48:27;;;;;;;0.77;0.13;;;9.00;99.90;;;;;;5072576;28;20060;-81
2022/12/25 08:50:53;;;;;;;1.40;0.55;;;9.00;99.90;;;;;;5072495;28;20040;-81
2022/12/25 08:53:19;;;;;;;0.00;0.00;;;9.10;99.90;;;;;;5072830;28;20040;-81
2022/12/25 08:55:45;;;;;;;0.00;0.00;;;9.10;99.90;;;;;;5022846;28;20049;-81
2022/12/25 08:58:13;;;;;;;0.10;0.00;;;9.10;99.90;;;;;;5055349;28;20554;-81
2022/12/25 09:00:39;;;;;;;0.00;0.00;;;9.10;99.90;;;;;;5055691;28;20461;-81
2022/12/25 09:03:05;;;;;;;0.00;0.00;;;9.10;99.90;;;;;;5072506;28;20056;-81
2022/12/25 09:05:36;;;;;;;0.00;0.00;;;9.10;99.90;;;;;;5055891;28;20043;-81
2022/12/25 09:08:02;;;;;;;0.82;0.00;;;9.20;99.90;;;;;;5055199;28;20041;-80
2022/12/25 09:10:28;;;;;;;1.08;0.30;;;9.20;99.90;;;;;;5072342;28;20481;-80
2022/12/25 09:12:54;;;;;;;0.00;0.00;;;9.20;99.90;;;;;;5038915;28;20040;-80
2022/12/25 09:15:20;;;;;;;0.40;0.38;;;9.20;99.90;;;;;;5039652;28;20045;-80
2022/12/25 09:17:46;;;;;;;0.00;0.00;;;9.20;99.90;;;;;;5071785;28;20048;-80
2022/12/25 09:20:11;;;;;;;0.22;0.22;;;9.20;99.90;;;;;;5055207;28;20131;-80
2022/12/25 09:22:37;;;;;;;2.05;0.22;;;9.30;99.90;;;;;;5055612;28;20059;-80
2022/12/25 09:25:03;;;;;;;0.57;0.45;;;9.30;99.90;;;;;;5042595;28;20052;-80
2022/12/25 09:27:29;;;;;;;0.10;0.00;;;9.30;99.90;;;;;;5060193;28;20041;-80
2022/12/25 09:29:54;;;;;;;1.40;0.30;;;9.30;99.90;;;;;;5075972;28;20048;-80
2022/12/25 09:32:20;;;;;;;0.00;0.00;;;9.30;99.90;;;;;;5076424;28;20044;-80
2022/12/25 09:34:46;;;;;;;0.00;0.00;;;9.30;99.90;;;;;;5042868;28;20084;-80
2022/12/25 09:37:11;;;;;;;0.00;0.00;;;9.30;99.90;;;;;;5075228;28;20040;-81
2022/12/25 09:39:37;;;;;;;0.00;0.00;;;9.30;99.90;;;;;;5058633;28;20060;-81
2022/12/25 09:42:18;;;;;;;0.00;0.00;;;9.30;99.90;;;;;;5094142;28;20177;-81
2022/12/25 09:44:50;;;;;;;0.40;0.30;;;9.40;99.90;;;;;;5096029;28;20141;-81
2022/12/25 09:47:24;;;;;;;0.98;0.45;;;9.40;99.90;;;;;;5079174;28;20047;-81
2022/12/25 09:50:02;;;;;;;0.15;0.15;;;9.40;99.90;;;;;;5079032;28;20058;-81
2022/12/25 09:52:46;;;;;;;0.00;0.00;;;9.40;99.90;;;;;;5096234;28;20054;-81
2022/12/25 09:55:18;;;;;;;0.00;0.00;;;9.40;99.90;;;;;;5079101;28;20137;-81
2022/12/25 09:57:45;;;;;;;0.35;0.05;;;9.40;99.90;;;;;;5078868;28;20044;-82
2022/12/25 10:00:17;;;;;;;0.00;0.00;;;9.40;99.90;;;;;;5095613;28;20094;-81
2022/12/25 10:02:52;;;;;;;0.00;0.00;;;9.40;99.90;;;;;;5083385;28;20055;-81
2022/12/25 10:05:59;;;;;;;0.00;0.00;;;9.50;99.90;;;;;;5106188;28;20047;-81
2022/12/25 10:08:33;;;;;;;0.05;0.05;;;9.50;99.90;;;;;;5086600;28;20051;-82
2022/12/25 10:11:02;;;;;;;0.10;0.03;;;9.50;99.90;;;;;;5084148;28;20051;-81
2022/12/25 10:13:45;;;;;;;0.00;0.00;;;9.50;99.90;;;;;;5086252;28;20391;-81
2022/12/25 10:16:32;;;;;;;0.35;0.35;;;9.50;99.90;;;;;;5099993;28;20039;-81
2022/12/25 10:19:18;;;;;;;0.40;0.28;;;9.50;99.90;;;;;;5079168;28;20480;-81
2022/12/25 10:21:44;;;;;;;0.57;0.57;;;9.50;99.90;;;;;;5078214;28;20506;-81
2022/12/25 10:24:34;;;;;;;0.10;0.05;;;9.50;99.90;;;;;;5078067;28;20060;-80
2022/12/25 10:27:04;;;;;;;0.10;0.10;;;9.60;99.90;;;;;;5078379;28;20090;-81
2022/12/25 10:29:34;;;;;;;0.05;0.05;;;9.60;99.90;;;;;;5078196;28;20040;-81
2022/12/25 10:32:00;;;;;;;0.10;0.10;;;9.60;99.90;;;;;;5095923;28;20102;-81
2022/12/25 10:34:27;;;;;;;0.10;0.10;;;9.60;99.90;;;;;;5095135;28;20076;-81
2022/12/25 10:36:54;;;;;;;0.10;0.05;;;9.50;99.90;;;;;;5078287;28;20131;-81
2022/12/25 10:39:24;;;;;;;0.00;0.00;;;9.50;99.90;;;;;;5093867;28;20044;-81
2022/12/25 10:42:14;;;;;;;1.67;0.20;;;9.50;99.90;;;;;;5095132;28;20478;-81
2022/12/25 10:45:04;;;;;;;0.00;0.00;;;9.50;99.90;;;;;;5078174;28;20048;-81
2022/12/25 10:47:32;;;;;;;0.00;0.00;;;9.60;99.90;;;;;;5078046;28;20054;-81
2022/12/25 10:49:59;;;;;;;0.00;0.00;;;9.60;99.90;;;;;;5094888;28;20044;-81
2022/12/25 10:52:28;;;;;;;0.10;0.10;;;9.60;99.90;;;;;;5094927;28;20048;-81
2022/12/25 10:54:54;;;;;;;0.25;0.25;;;9.60;99.90;;;;;;5077873;28;20058;-81
2022/12/25 10:57:23;;;;;;;0.10;0.05;;;9.60;99.90;;;;;;5094523;28;20492;-81
2022/12/25 10:59:54;;;;;;;0.30;0.20;;;9.60;99.90;;;;;;5077625;28;20127;-81
2022/12/25 11:02:36;;;;;;;0.20;0.10;;;9.60;99.90;;;;;;5079849;28;20044;-81
2022/12/25 11:05:09;;;;;;;0.10;0.10;;;9.60;99.90;;;;;;5083853;28;20048;-82
2022/12/25 11:07:45;;;;;;;0.00;0.00;;;9.60;99.90;;;;;;5073647;28;20101;-82
2022/12/25 11:10:31;;;;;;;0.10;0.00;;;9.60;99.90;;;;;;5074503;28;20052;-81
2022/12/25 11:12:58;;;;;;;0.47;0.47;;;9.60;99.90;;;;;;5057234;28;20545;-81
2022/12/25 11:15:35;;;;;;;0.32;0.32;;;9.60;99.90;;;;;;5074161;28;20483;-81
2022/12/25 11:18:18;;;;;;;0.40;0.20;;;9.60;99.90;;;;;;5057463;28;20056;-81
2022/12/25 11:20:56;;;;;;;0.03;0.03;;;9.70;99.90;;;;;;5074678;28;20040;-81
2022/12/25 11:23:24;;;;;;;0.00;0.00;;;9.70;99.90;;;;;;5074235;28;20048;-81
2022/12/25 11:26:01;;;;;;;2.55;1.00;;;9.70;99.90;;;;;;5057365;28;20076;-81
2022/12/25 11:28:29;;;;;;;0.10;0.10;;;9.70;99.90;;;;;;5073779;28;20492;-81
2022/12/25 11:31:04;;;;;;;1.52;0.65;;;9.70;99.90;;;;;;5073695;28;20053;-81
2022/12/25 11:33:36;;;;;;;0.00;0.00;;;9.70;99.90;;;;;;5073484;28;20488;-81
2022/12/25 11:36:13;;;;;;;0.00;0.00;;;9.70;99.90;;;;;;5057074;28;20074;-81
2022/12/25 11:38:38;;;;;;;0.00;0.00;;;9.70;99.90;;;;;;5056174;28;20056;-81
2022/12/25 11:41:09;;;;;;;0.20;0.10;;;9.70;99.90;;;;;;5057327;28;20048;-81
2022/12/25 11:43:47;;;;;;;0.00;0.00;;;9.70;99.90;;;;;;5057503;28;20496;-81
2022/12/25 11:46:26;;;;;;;0.30;0.10;;;9.70;99.90;;;;;;5072681;28;20519;-81
2022/12/25 11:49:07;;;;;;;0.00;0.00;;;9.70;99.90;;;;;;5094481;28;20040;-81
2022/12/25 11:51:36;;;;;;;0.00;0.00;;;9.60;99.90;;;;;;5095216;28;20048;-81
2022/12/25 11:54:21;;;;;;;1.15;0.22;;;9.70;99.90;;;;;;5100397;28;20044;-81
2022/12/25 11:56:47;;;;;;;;;;;9.70;99.90;;;;;;5073317;28;20040;-82
2022/12/25 11:59:24;;;;;;;0.10;0.00;;;9.60;99.90;;;;;;5056168;28;19928;-81
2022/12/25 12:01:58;;;;;;;0.20;0.20;;;9.60;99.90;;;;;;5056535;28;20049;-81
2022/12/25 12:04:25;;;;;;;0.10;0.10;;;9.60;99.90;;;;;;5056492;28;20109;-81
2022/12/25 12:07:07;;;;;;;0.00;0.00;;;9.60;99.90;;;;;;5056364;28;20326;-81
2022/12/25 12:09:49;;;;;;;0.20;0.15;;;9.60;99.90;;;;;;5056185;28;20550;-81
2022/12/25 12:12:50;;;;;;;2.08;0.50;;;9.60;99.90;;;;;;5073223;28;20044;-81
2022/12/25 12:15:19;;;;;;;0.15;0.10;;;9.60;99.90;;;;;;5039267;28;20497;-83
2022/12/25 12:17:45;;;;;;;1.25;0.10;;;9.60;99.90;;;;;;5072923;28;20098;-81
2022/12/25 12:20:28;;;;;;;0.30;0.30;;;9.60;99.90;;;;;;5039474;28;20044;-81
2022/12/25 12:22:54;;;;;;;0.30;0.03;;;9.70;99.90;;;;;;5056442;28;20051;-82
2022/12/25 12:25:21;;;;;;;0.03;0.03;;;9.70;99.90;;;;;;5039283;28;20041;-82
2022/12/25 12:27:55;;;;;;;0.10;0.10;;;9.70;99.90;;;;;;5072787;28;20048;-81
2022/12/25 12:30:28;;;;;;;0.30;0.30;;;9.70;99.90;;;;;;5072870;28;20048;-81
2022/12/25 12:32:57;;;;;;;0.00;0.00;;;9.70;99.90;;;;;;5060565;28;20048;-81
2022/12/25 12:35:39;;;;;;;0.10;0.00;;;9.70;99.90;;;;;;5063610;28;20128;-82
2022/12/25 12:38:18;;;;;;;0.88;0.50;;;9.70;99.90;;;;;;5073056;28;20056;-81
2022/12/25 12:40:57;;;;;;;0.00;0.00;;;9.70;99.90;;;;;;5056209;28;20439;-81
2022/12/25 12:43:34;;;;;;;0.13;0.10;;;9.70;99.90;;;;;;5072645;28;20461;-81
2022/12/25 12:46:13;;;;;;;0.05;0.05;;;9.70;99.90;;;;;;5072510;28;20053;-81
2022/12/25 12:48:45;;;;;;;0.00;0.00;;;9.70;99.90;;;;;;5073382;28;20045;-82
2022/12/25 12:51:14;;;;;;;0.00;0.00;;;9.70;99.90;;;;;;5061295;28;20557;-82
2022/12/25 12:53:41;;;;;;;0.45;0.15;;;9.70;99.90;;;;;;5055622;28;20492;-81
2022/12/25 12:56:15;;;;;;;0.00;0.00;;;9.60;99.90;;;;;;5055795;28;20049;-81
2022/12/25 12:58:47;;;;;;;0.60;0.45;;;9.60;99.90;;;;;;5060361;28;20472;-81
2022/12/25 13:01:23;;;;;;;0.00;0.00;;;9.60;99.90;;;;;;5076797;28;20045;-81
2022/12/25 13:04:00;;;;;;;0.03;0.03;;;9.60;99.90;;;;;;5060038;28;20389;-81
2022/12/25 13:07:09;;;;;;;0.00;0.00;;;9.50;99.90;;;;;;5076638;28;20492;-82
2022/12/25 13:09:58;;;;;;;0.00;0.00;;;9.50;99.90;;;;;;5059823;28;20044;-82
2022/12/25 13:12:24;;;;;;;0.30;0.30;;;9.50;99.90;;;;;;5076561;28;20056;-82
2022/12/25 13:14:50;;;;;;;0.10;0.10;;;9.50;99.90;;;;;;5059599;28;20099;-82
2022/12/25 13:17:24;;;;;;;0.10;0.10;;;9.50;99.90;;;;;;5076498;28;20132;-82
2022/12/25 13:19:57;;;;;;;0.00;0.00;;;9.50;99.90;;;;;;5059454;28;20063;-81
2022/12/25 13:22:24;;;;;;;0.05;0.05;;;9.50;99.90;;;;;;5076498;28;20055;-81
2022/12/25 13:24:59;;;;;;;0.17;0.10;;;9.40;99.90;;;;;;5076221;28;20048;-81
2022/12/25 13:27:32;;;;;;;2.63;0.10;;;9.40;99.90;;;;;;5076178;28;20109;-80
2022/12/25 13:29:58;;;;;;;0.30;0.10;;;9.40;99.90;;;;;;5076032;28;20047;-81
2022/12/25 13:32:28;;;;;;;2.38;0.63;;;9.40;99.90;;;;;;5075896;28;20488;-81
2022/12/25 13:34:55;;;;;;;1.33;0.22;;;9.40;99.90;;;;;;5075936;28;20040;-81
2022/12/25 13:37:23;;;;;;;3.95;0.57;;;9.40;99.90;;;;;;5059404;28;20459;-81
2022/12/25 13:39:55;;;;;;;0.10;0.10;;;9.30;99.90;;;;;;5075403;28;20048;-81
2022/12/25 13:42:25;;;;;;;0.57;0.20;;;9.40;99.90;;;;;;5076684;28;20148;-82
2022/12/25 13:45:05;;;;;;;0.70;0.03;;;9.30;99.90;;;;;;5059126;28;20041;-83
2022/12/25 13:47:33;;;;;;;0.20;0.20;;;9.30;99.90;;;;;;5059200;28;20556;-83
2022/12/25 13:50:12;;;;;;;0.82;0.40;;;9.30;99.90;;;;;;5059080;28;20045;-82
2022/12/25 13:52:38;;;;;;;0.13;0.13;;;9.30;99.90;;;;;;5075953;28;20037;-83
2022/12/25 13:55:15;;;;;;;0.73;0.30;;;9.30;99.90;;;;;;5043290;28;20411;-83
2022/12/25 13:57:51;;;;;;;0.28;0.13;;;9.30;99.90;;;;;;5075566;28;20136;-80
2022/12/25 14:00:22;;;;;;;2.38;0.55;;;9.30;99.90;;;;;;5076120;28;20455;-79
2022/12/25 14:02:49;;;;;;;0.70;0.32;;;9.30;99.90;;;;;;5059612;28;20056;-79
2022/12/25 14:05:29;;;;;;;0.00;0.00;;;9.30;99.90;;;;;;5075490;28;20052;-80
2022/12/25 14:07:58;;;;;;;2.35;0.85;;;9.20;99.90;;;;;;5074961;28;20507;-82
2022/12/25 14:10:27;;;;;;;0.40;0.20;;;9.20;99.90;;;;;;5057671;28;20397;-81
2022/12/25 14:13:00;;;;;;;0.10;0.10;;;9.20;99.90;;;;;;5076019;28;20045;-86
2022/12/25 14:15:28;;;;;;;0.73;0.17;;;9.20;99.90;;;;;;5075302;28;20499;-81
2022/12/25 14:17:54;;;;;;;0.00;0.00;;;9.20;99.90;;;;;;5075201;28;20392;-81
2022/12/25 14:20:28;;;;;;;0.20;0.20;;;9.20;99.90;;;;;;5074768;28;20037;-81
2022/12/25 14:22:56;;;;;;;0.35;0.28;;;9.20;99.90;;;;;;5058527;28;20131;-82
2022/12/25 14:25:29;;;;;;;0.90;0.13;;;9.20;99.90;;;;;;5075551;28;20052;-83
2022/12/25 14:27:57;;;;;;;0.90;0.75;;;9.10;99.90;;;;;;5058744;28;20044;-82
2022/12/25 14:30:26;;;;;;;0.00;0.00;;;9.10;99.90;;;;;;5074956;28;20044;-81
2022/12/25 14:32:53;;;;;;;0.43;0.10;;;9.10;99.90;;;;;;5074855;28;20052;-81
2022/12/25 14:35:20;;;;;;;0.10;0.10;;;9.10;99.90;;;;;;5074964;28;20404;-83
2022/12/25 14:37:53;;;;;;;0.22;0.10;;;9.10;99.90;;;;;;5058077;28;20477;-84
2022/12/25 14:40:30;;;;;;;0.08;0.08;;;9.10;99.90;;;;;;5057561;28;20055;-82
2022/12/25 14:43:02;;;;;;;0.10;0.10;;;9.10;99.90;;;;;;5074929;28;20052;-80
2022/12/25 14:45:38;;;;;;;0.22;0.00;;;9.10;99.90;;;;;;5057958;28;20056;-81
2022/12/25 14:48:20;;;;;;;0.22;0.13;;;9.10;99.90;;;;;;5058117;28;20052;-82
2022/12/25 14:50:55;;;;;;;1.10;0.38;;;9.10;99.90;;;;;;5074627;28;20495;-83
2022/12/25 14:53:23;;;;;;;0.15;0.15;;;9.10;99.90;;;;;;5057764;28;20044;-82